sensor_id;sensor_type;location;lat;lon;timestamp;temperature;humidity
9965;DHT22;5023;53.554;9.964;2023-12-07T00:02:42;2.30;99.90
9965;DHT22;5023;53.554;9.964;2023-12-07T00:07:47;2.10;99.90
9965;DHT22;5023;53.554;9.964;2023-12-07T00:12:50;2.10;99.90
9965;DHT22;5023;53.554;9.964;2023-12-07T00:17:52;2.10;99.90
9965;DHT22;5023;53.554;9.964;2023-12-07T00:22:54;2.10;99.90
9965;DHT22;5023;53.554;9.964;2023-12-07T00:27:58;2.10;99.90
9965;DHT22;5023;53.554;9.964;2023-12-07T00:33:00;2.00;99.90
9965;DHT22;5023;53.554;9.964;2023-12-07T00:38:05;2.10;99.90
9965;DHT22;5023;53.554;9.964;2023-12-07T00:43:10;2.30;99.90
9965;DHT22;5023;53.554;9.964;2023-12-07T00:48:12;2.00;99.90
9965;DHT22;5023;53.554;9.964;2023-12-07T00:53:16;2.10;99.90
9965;DHT22;5023;53.554;9.964;2023-12-07T00:58:19;2.20;99.90
9965;DHT22;5023;53.554;9.964;2023-12-07T01:03:21;2.20;99.90
9965;DHT22;5023;53.554;9.964;2023-12-07T01:08:23;2.20;99.90
9965;DHT22;5023;53.554;9.964;2023-12-07T01:13:27;2.20;99.90
9965;DHT22;5023;53.554;9.964;2023-12-07T01:18:29;2.20;99.90
9965;DHT22;5023;53.554;9.964;2023-12-07T01:23:32;2.40;99.90
9965;DHT22;5023;53.554;9.964;2023-12-07T01:28:35;2.20;99.90
9965;DHT22;5023;53.554;9.964;2023-12-07T01:33:37;2.30;99.90
9965;DHT22;5023;53.554;9.964;2023-12-07T01:38:39;2.20;99.90
9965;DHT22;5023;53.554;9.964;2023-12-07T01:43:46;2.20;99.90
9965;DHT22;5023;53.554;9.964;2023-12-07T01:48:48;2.30;99.90
9965;DHT22;5023;53.554;9.964;2023-12-07T01:53:51;2.10;99.90
9965;DHT22;5023;53.554;9.964;2023-12-07T01:58:54;2.10;99.90
9965;DHT22;5023;53.554;9.964;2023-12-07T02:03:56;2.20;99.90
9965;DHT22;5023;53.554;9.964;2023-12-07T02:08:58;2.20;99.90
9965;DHT22;5023;53.554;9.964;2023-12-07T02:14:01;2.20;99.90
9965;DHT22;5023;53.554;9.964;2023-12-07T02:19:14;2.20;99.90
9965;DHT22;5023;53.554;9.964;2023-12-07T02:24:22;2.40;99.90
9965;DHT22;5023;53.554;9.964;2023-12-07T02:29:25;2.30;99.90
9965;DHT22;5023;53.554;9.964;2023-12-07T02:34:27;2.30;99.90
9965;DHT22;5023;53.554;9.964;2023-12-07T02:39:29;2.30;99.90
9965;DHT22;5023;53.554;9.964;2023-12-07T02:44:32;2.20;99.90
9965;DHT22;5023;53.554;9.964;2023-12-07T02:49:34;2.30;99.90
9965;DHT22;5023;53.554;9.964;2023-12-07T02:54:36;2.20;99.90
9965;DHT22;5023;53.554;9.964;2023-12-07T02:59:39;2.30;99.90
9965;DHT22;5023;53.554;9.964;2023-12-07T03:04:41;2.20;99.90
9965;DHT22;5023;53.554;9.964;2023-12-07T03:09:43;2.20;99.90
9965;DHT22;5023;53.554;9.964;2023-12-07T03:14:46;2.30;99.90
9965;DHT22;5023;53.554;9.964;2023-12-07T03:19:48;2.40;99.90
9965;DHT22;5023;53.554;9.964;2023-12-07T03:24:51;2.40;99.90
9965;DHT22;5023;53.554;9.964;2023-12-07T03:29:55;2.30;99.90
9965;DHT22;5023;53.554;9.964;2023-12-07T03:34:56;2.50;99.90
9965;DHT22;5023;53.554;9.964;2023-12-07T03:39:58;2.40;99.90
9965;DHT22;5023;53.554;9.964;2023-12-07T03:45:02;2.30;99.90
9965;DHT22;5023;53.554;9.964;2023-12-07T03:50:05;2.40;99.90
9965;DHT22;5023;53.554;9.964;2023-12-07T03:55:08;2.40;99.90
9965;DHT22;5023;53.554;9.964;2023-12-07T04:00:13;2.40;99.90
9965;DHT22;5023;53.554;9.964;2023-12-07T04:05:15;2.40;99.90
9965;DHT22;5023;53.554;9.964;2023-12-07T04:10:17;2.50;99.90
9965;DHT22;5023;53.554;9.964;2023-12-07T04:15:20;2.60;99.90
9965;DHT22;5023;53.554;9.964;2023-12-07T04:20:23;2.60;99.90
9965;DHT22;5023;53.554;9.964;2023-12-07T04:25:25;2.50;99.90
9965;DHT22;5023;53.554;9.964;2023-12-07T04:30:28;2.50;99.90
9965;DHT22;5023;53.554;9.964;2023-12-07T04:35:34;2.60;99.90
9965;DHT22;5023;53.554;9.964;2023-12-07T04:40:36;2.60;99.90
9965;DHT22;5023;53.554;9.964;2023-12-07T04:45:40;2.60;99.90
9965;DHT22;5023;53.554;9.964;2023-12-07T04:50:42;2.60;99.90
9965;DHT22;5023;53.554;9.964;2023-12-07T04:55:44;2.60;99.90
9965;DHT22;5023;53.554;9.964;2023-12-07T05:00:51;2.50;99.90
9965;DHT22;5023;53.554;9.964;2023-12-07T05:05:53;2.50;99.90
9965;DHT22;5023;53.554;9.964;2023-12-07T05:10:55;2.70;99.90
9965;DHT22;5023;53.554;9.964;2023-12-07T05:15:58;2.50;99.90
9965;DHT22;5023;53.554;9.964;2023-12-07T05:21:00;2.40;99.90
9965;DHT22;5023;53.554;9.964;2023-12-07T05:26:03;2.40;99.90
9965;DHT22;5023;53.554;9.964;2023-12-07T05:31:06;2.30;99.90
9965;DHT22;5023;53.554;9.964;2023-12-07T05:36:09;2.30;99.90
9965;DHT22;5023;53.554;9.964;2023-12-07T05:41:12;2.30;99.90
9965;DHT22;5023;53.554;9.964;2023-12-07T05:46:16;2.40;99.90
9965;DHT22;5023;53.554;9.964;2023-12-07T05:51:18;2.40;99.90
9965;DHT22;5023;53.554;9.964;2023-12-07T05:56:21;2.40;99.90
9965;DHT22;5023;53.554;9.964;2023-12-07T06:01:24;2.50;99.90
9965;DHT22;5023;53.554;9.964;2023-12-07T06:06:26;2.40;99.90
9965;DHT22;5023;53.554;9.964;2023-12-07T06:11:28;2.50;99.90
9965;DHT22;5023;53.554;9.964;2023-12-07T06:16:31;3.00;99.90
9965;DHT22;5023;53.554;9.964;2023-12-07T06:21:33;2.60;99.90
9965;DHT22;5023;53.554;9.964;2023-12-07T06:26:37;2.60;99.90
9965;DHT22;5023;53.554;9.964;2023-12-07T06:31:44;2.50;99.90
9965;DHT22;5023;53.554;9.964;2023-12-07T06:36:46;2.50;99.90
9965;DHT22;5023;53.554;9.964;2023-12-07T06:41:48;2.50;99.90
9965;DHT22;5023;53.554;9.964;2023-12-07T06:46:51;2.60;99.90
9965;DHT22;5023;53.554;9.964;2023-12-07T06:51:53;2.60;99.90
9965;DHT22;5023;53.554;9.964;2023-12-07T06:56:55;2.70;99.90
9965;DHT22;5023;53.554;9.964;2023-12-07T07:01:58;2.60;99.90
9965;DHT22;5023;53.554;9.964;2023-12-07T07:07:00;2.60;99.90
9965;DHT22;5023;53.554;9.964;2023-12-07T07:12:02;2.60;99.90
9965;DHT22;5023;53.554;9.964;2023-12-07T07:17:07;2.60;99.90
9965;DHT22;5023;53.554;9.964;2023-12-07T07:22:08;2.60;99.90
9965;DHT22;5023;53.554;9.964;2023-12-07T07:27:10;2.60;99.90
9965;DHT22;5023;53.554;9.964;2023-12-07T07:32:14;2.50;99.90
9965;DHT22;5023;53.554;9.964;2023-12-07T07:37:16;2.40;99.90
9965;DHT22;5023;53.554;9.964;2023-12-07T07:42:19;2.50;99.90
9965;DHT22;5023;53.554;9.964;2023-12-07T07:47:22;2.50;99.90
9965;DHT22;5023;53.554;9.964;2023-12-07T07:52:24;2.60;99.90
9965;DHT22;5023;53.554;9.964;2023-12-07T07:57:26;2.70;99.90
9965;DHT22;5023;53.554;9.964;2023-12-07T08:02:29;2.60;99.90
9965;DHT22;5023;53.554;9.964;2023-12-07T08:07:31;2.70;99.90
9965;DHT22;5023;53.554;9.964;2023-12-07T08:12:33;2.60;99.90
9965;DHT22;5023;53.554;9.964;2023-12-07T08:17:37;2.70;99.90
9965;DHT22;5023;53.554;9.964;2023-12-07T08:22:40;2.70;99.90
9965;DHT22;5023;53.554;9.964;2023-12-07T08:27:42;2.70;99.90
9965;DHT22;5023;53.554;9.964;2023-12-07T08:32:47;2.90;99.90
9965;DHT22;5023;53.554;9.964;2023-12-07T08:37:48;2.80;99.90
9965;DHT22;5023;53.554;9.964;2023-12-07T08:42:50;2.90;99.90
9965;DHT22;5023;53.554;9.964;2023-12-07T08:47:54;2.90;99.90
9965;DHT22;5023;53.554;9.964;2023-12-07T08:52:55;3.00;99.90
9965;DHT22;5023;53.554;9.964;2023-12-07T08:57:57;2.90;99.90
9965;DHT22;5023;53.554;9.964;2023-12-07T09:03:03;2.80;99.90
9965;DHT22;5023;53.554;9.964;2023-12-07T09:08:05;2.90;99.90
9965;DHT22;5023;53.554;9.964;2023-12-07T09:13:07;3.00;99.90
9965;DHT22;5023;53.554;9.964;2023-12-07T09:18:10;3.10;99.90
9965;DHT22;5023;53.554;9.964;2023-12-07T09:23:13;3.20;99.90
9965;DHT22;5023;53.554;9.964;2023-12-07T09:28:15;3.20;99.90
9965;DHT22;5023;53.554;9.964;2023-12-07T09:33:19;3.20;99.90
9965;DHT22;5023;53.554;9.964;2023-12-07T09:38:21;3.10;99.90
9965;DHT22;5023;53.554;9.964;2023-12-07T09:43:23;3.10;99.90
9965;DHT22;5023;53.554;9.964;2023-12-07T09:48:26;3.00;99.90
9965;DHT22;5023;53.554;9.964;2023-12-07T09:53:29;3.10;99.90
9965;DHT22;5023;53.554;9.964;2023-12-07T09:58:35;3.20;99.90
9965;DHT22;5023;53.554;9.964;2023-12-07T10:03:38;3.30;99.90
9965;DHT22;5023;53.554;9.964;2023-12-07T10:08:40;3.20;99.90
9965;DHT22;5023;53.554;9.964;2023-12-07T10:13:42;3.10;99.90
9965;DHT22;5023;53.554;9.964;2023-12-07T10:18:45;3.00;99.90
9965;DHT22;5023;53.554;9.964;2023-12-07T10:23:47;3.00;99.90
9965;DHT22;5023;53.554;9.964;2023-12-07T10:28:49;3.00;99.90
9965;DHT22;5023;53.554;9.964;2023-12-07T10:33:55;3.10;99.90
9965;DHT22;5023;53.554;9.964;2023-12-07T10:38:57;3.20;99.90
9965;DHT22;5023;53.554;9.964;2023-12-07T10:44:00;3.30;99.90
9965;DHT22;5023;53.554;9.964;2023-12-07T10:49:07;3.30;99.90
9965;DHT22;5023;53.554;9.964;2023-12-07T10:54:11;3.40;99.90
9965;DHT22;5023;53.554;9.964;2023-12-07T10:59:16;3.50;99.90
9965;DHT22;5023;53.554;9.964;2023-12-07T11:04:20;3.60;99.90
9965;DHT22;5023;53.554;9.964;2023-12-07T11:09:27;3.40;99.90
9965;DHT22;5023;53.554;9.964;2023-12-07T11:14:30;3.40;99.90
9965;DHT22;5023;53.554;9.964;2023-12-07T11:19:54;3.30;99.90
9965;DHT22;5023;53.554;9.964;2023-12-07T11:24:57;3.40;99.90
9965;DHT22;5023;53.554;9.964;2023-12-07T11:30:02;3.40;99.90
9965;DHT22;5023;53.554;9.964;2023-12-07T11:35:12;3.50;99.90
9965;DHT22;5023;53.554;9.964;2023-12-07T11:40:14;3.50;99.90
9965;DHT22;5023;53.554;9.964;2023-12-07T11:45:16;3.50;99.90
9965;DHT22;5023;53.554;9.964;2023-12-07T11:50:53;3.50;99.90
9965;DHT22;5023;53.554;9.964;2023-12-07T11:55:57;3.60;99.90
9965;DHT22;5023;53.554;9.964;2023-12-07T12:01:00;3.50;99.90
9965;DHT22;5023;53.554;9.964;2023-12-07T12:06:05;3.50;99.90
9965;DHT22;5023;53.554;9.964;2023-12-07T12:11:08;3.50;99.90
9965;DHT22;5023;53.554;9.964;2023-12-07T12:16:11;3.60;99.90
9965;DHT22;5023;53.554;9.964;2023-12-07T12:21:14;3.60;99.90
9965;DHT22;5023;53.554;9.964;2023-12-07T12:26:18;3.80;99.90
9965;DHT22;5023;53.554;9.964;2023-12-07T12:31:21;3.80;99.90
9965;DHT22;5023;53.554;9.964;2023-12-07T12:36:25;3.90;99.90
9965;DHT22;5023;53.554;9.964;2023-12-07T12:41:29;3.80;99.90
9965;DHT22;5023;53.554;9.964;2023-12-07T12:46:31;3.80;99.90
9965;DHT22;5023;53.554;9.964;2023-12-07T12:51:38;3.90;99.90
9965;DHT22;5023;53.554;9.964;2023-12-07T12:56:41;3.80;99.90
9965;DHT22;5023;53.554;9.964;2023-12-07T13:01:44;3.90;99.90
9965;DHT22;5023;53.554;9.964;2023-12-07T13:06:48;3.80;99.90
9965;DHT22;5023;53.554;9.964;2023-12-07T13:11:50;3.80;99.90
9965;DHT22;5023;53.554;9.964;2023-12-07T13:16:52;3.80;99.90
9965;DHT22;5023;53.554;9.964;2023-12-07T13:21:56;3.70;99.90
9965;DHT22;5023;53.554;9.964;2023-12-07T13:26:58;3.80;99.90
9965;DHT22;5023;53.554;9.964;2023-12-07T13:32:03;3.80;99.90
9965;DHT22;5023;53.554;9.964;2023-12-07T13:37:07;3.70;99.90
9965;DHT22;5023;53.554;9.964;2023-12-07T13:42:10;3.80;99.90
9965;DHT22;5023;53.554;9.964;2023-12-07T13:47:14;3.60;99.90
9965;DHT22;5023;53.554;9.964;2023-12-07T13:52:17;3.60;99.90
9965;DHT22;5023;53.554;9.964;2023-12-07T13:57:33;3.70;99.90
9965;DHT22;5023;53.554;9.964;2023-12-07T14:02:35;3.60;99.90
9965;DHT22;5023;53.554;9.964;2023-12-07T14:07:39;3.60;99.90
9965;DHT22;5023;53.554;9.964;2023-12-07T14:12:40;3.50;99.90
9965;DHT22;5023;53.554;9.964;2023-12-07T14:17:43;3.50;99.90
9965;DHT22;5023;53.554;9.964;2023-12-07T14:22:46;3.60;99.90
9965;DHT22;5023;53.554;9.964;2023-12-07T14:27:49;3.70;99.90
9965;DHT22;5023;53.554;9.964;2023-12-07T14:32:51;3.80;99.90
9965;DHT22;5023;53.554;9.964;2023-12-07T14:37:55;3.90;99.90
9965;DHT22;5023;53.554;9.964;2023-12-07T14:43:12;3.80;99.90
9965;DHT22;5023;53.554;9.964;2023-12-07T14:48:19;3.80;99.90
9965;DHT22;5023;53.554;9.964;2023-12-07T14:53:23;3.80;99.90
9965;DHT22;5023;53.554;9.964;2023-12-07T14:58:25;3.80;99.90
9965;DHT22;5023;53.554;9.964;2023-12-07T15:03:28;3.50;99.90
9965;DHT22;5023;53.554;9.964;2023-12-07T15:08:31;3.50;99.90
9965;DHT22;5023;53.554;9.964;2023-12-07T15:13:34;3.50;99.90
9965;DHT22;5023;53.554;9.964;2023-12-07T15:18:36;3.50;99.90
9965;DHT22;5023;53.554;9.964;2023-12-07T15:23:41;3.60;99.90
9965;DHT22;5023;53.554;9.964;2023-12-07T15:28:43;3.60;99.90
9965;DHT22;5023;53.554;9.964;2023-12-07T15:33:45;3.50;99.90
9965;DHT22;5023;53.554;9.964;2023-12-07T15:38:48;3.40;99.90
9965;DHT22;5023;53.554;9.964;2023-12-07T15:44:09;3.30;99.90
9965;DHT22;5023;53.554;9.964;2023-12-07T15:49:11;3.40;99.90
9965;DHT22;5023;53.554;9.964;2023-12-07T15:54:14;3.50;99.90
9965;DHT22;5023;53.554;9.964;2023-12-07T15:59:16;3.60;99.90
9965;DHT22;5023;53.554;9.964;2023-12-07T16:04:19;3.60;99.90
9965;DHT22;5023;53.554;9.964;2023-12-07T16:09:23;3.80;99.90
9965;DHT22;5023;53.554;9.964;2023-12-07T16:14:25;3.70;99.90
9965;DHT22;5023;53.554;9.964;2023-12-07T16:19:27;3.60;99.90
9965;DHT22;5023;53.554;9.964;2023-12-07T16:24:33;3.50;99.90
9965;DHT22;5023;53.554;9.964;2023-12-07T16:29:35;3.40;99.90
9965;DHT22;5023;53.554;9.964;2023-12-07T16:34:38;3.60;99.90
9965;DHT22;5023;53.554;9.964;2023-12-07T16:39:43;3.60;99.90
9965;DHT22;5023;53.554;9.964;2023-12-07T16:44:44;3.60;99.90
9965;DHT22;5023;53.554;9.964;2023-12-07T16:49:52;3.60;99.90
9965;DHT22;5023;53.554;9.964;2023-12-07T16:54:55;3.50;99.90
9965;DHT22;5023;53.554;9.964;2023-12-07T16:59:59;3.50;99.90
9965;DHT22;5023;53.554;9.964;2023-12-07T17:05:02;3.60;99.90
9965;DHT22;5023;53.554;9.964;2023-12-07T17:10:08;3.50;99.90
9965;DHT22;5023;53.554;9.964;2023-12-07T17:15:10;3.50;99.90
9965;DHT22;5023;53.554;9.964;2023-12-07T17:20:12;3.50;99.90
9965;DHT22;5023;53.554;9.964;2023-12-07T17:25:16;3.50;99.90
9965;DHT22;5023;53.554;9.964;2023-12-07T17:30:20;3.50;99.90
9965;DHT22;5023;53.554;9.964;2023-12-07T17:35:22;3.60;99.90
9965;DHT22;5023;53.554;9.964;2023-12-07T17:40:25;3.60;99.90
9965;DHT22;5023;53.554;9.964;2023-12-07T17:45:27;3.60;99.90
9965;DHT22;5023;53.554;9.964;2023-12-07T17:50:29;3.60;99.90
9965;DHT22;5023;53.554;9.964;2023-12-07T17:55:32;3.60;99.90
9965;DHT22;5023;53.554;9.964;2023-12-07T18:00:34;3.50;99.90
9965;DHT22;5023;53.554;9.964;2023-12-07T18:05:36;3.40;99.90
9965;DHT22;5023;53.554;9.964;2023-12-07T18:10:40;3.40;99.90
9965;DHT22;5023;53.554;9.964;2023-12-07T18:15:41;3.20;99.90
9965;DHT22;5023;53.554;9.964;2023-12-07T18:20:43;3.10;99.90
9965;DHT22;5023;53.554;9.964;2023-12-07T18:25:47;3.20;99.90
9965;DHT22;5023;53.554;9.964;2023-12-07T18:30:48;3.20;99.90
9965;DHT22;5023;53.554;9.964;2023-12-07T18:35:50;3.40;99.90
9965;DHT22;5023;53.554;9.964;2023-12-07T18:40:54;3.10;99.90
9965;DHT22;5023;53.554;9.964;2023-12-07T18:45:56;3.20;99.90
9965;DHT22;5023;53.554;9.964;2023-12-07T18:50:58;3.10;99.90
9965;DHT22;5023;53.554;9.964;2023-12-07T18:56:02;3.10;99.90
9965;DHT22;5023;53.554;9.964;2023-12-07T19:01:04;3.10;99.90
9965;DHT22;5023;53.554;9.964;2023-12-07T19:06:06;3.00;99.90
9965;DHT22;5023;53.554;9.964;2023-12-07T19:11:10;2.90;99.90
9965;DHT22;5023;53.554;9.964;2023-12-07T19:16:12;3.00;99.90
9965;DHT22;5023;53.554;9.964;2023-12-07T19:21:15;3.10;99.90
9965;DHT22;5023;53.554;9.964;2023-12-07T19:26:19;3.10;99.90
9965;DHT22;5023;53.554;9.964;2023-12-07T19:31:21;3.00;99.90
9965;DHT22;5023;53.554;9.964;2023-12-07T19:36:23;3.00;99.90
9965;DHT22;5023;53.554;9.964;2023-12-07T19:41:26;3.00;99.90
9965;DHT22;5023;53.554;9.964;2023-12-07T19:46:28;3.30;99.90
9965;DHT22;5023;53.554;9.964;2023-12-07T19:51:30;2.70;99.90
9965;DHT22;5023;53.554;9.964;2023-12-07T19:56:33;2.70;99.90
9965;DHT22;5023;53.554;9.964;2023-12-07T20:01:35;2.90;99.90
9965;DHT22;5023;53.554;9.964;2023-12-07T20:06:37;2.80;99.90
9965;DHT22;5023;53.554;9.964;2023-12-07T20:11:40;2.80;99.90
9965;DHT22;5023;53.554;9.964;2023-12-07T20:16:44;2.80;99.90
9965;DHT22;5023;53.554;9.964;2023-12-07T20:21:45;2.90;99.90
9965;DHT22;5023;53.554;9.964;2023-12-07T20:26:49;2.80;99.90
9965;DHT22;5023;53.554;9.964;2023-12-07T20:31:51;2.70;99.90
9965;DHT22;5023;53.554;9.964;2023-12-07T20:36:53;2.80;99.90
9965;DHT22;5023;53.554;9.964;2023-12-07T20:41:56;2.70;99.90
9965;DHT22;5023;53.554;9.964;2023-12-07T20:46:58;2.70;99.90
9965;DHT22;5023;53.554;9.964;2023-12-07T20:52:00;2.60;99.90
9965;DHT22;5023;53.554;9.964;2023-12-07T20:57:04;2.50;99.90
9965;DHT22;5023;53.554;9.964;2023-12-07T21:02:06;2.60;99.90
9965;DHT22;5023;53.554;9.964;2023-12-07T21:07:08;2.50;99.90
9965;DHT22;5023;53.554;9.964;2023-12-07T21:12:11;2.50;99.90
9965;DHT22;5023;53.554;9.964;2023-12-07T21:17:13;2.40;99.90
9965;DHT22;5023;53.554;9.964;2023-12-07T21:22:19;2.50;99.90
9965;DHT22;5023;53.554;9.964;2023-12-07T21:27:23;2.40;99.90
9965;DHT22;5023;53.554;9.964;2023-12-07T21:32:26;2.30;99.90
9965;DHT22;5023;53.554;9.964;2023-12-07T21:37:27;2.40;99.90
9965;DHT22;5023;53.554;9.964;2023-12-07T21:42:31;2.50;99.90
9965;DHT22;5023;53.554;9.964;2023-12-07T21:47:33;2.40;99.90
9965;DHT22;5023;53.554;9.964;2023-12-07T21:52:34;2.40;99.90
9965;DHT22;5023;53.554;9.964;2023-12-07T21:57:38;2.30;99.90
9965;DHT22;5023;53.554;9.964;2023-12-07T22:02:40;2.30;99.90
9965;DHT22;5023;53.554;9.964;2023-12-07T22:07:42;2.40;99.90
9965;DHT22;5023;53.554;9.964;2023-12-07T22:12:45;2.40;99.90
9965;DHT22;5023;53.554;9.964;2023-12-07T22:17:47;2.20;99.90
9965;DHT22;5023;53.554;9.964;2023-12-07T22:22:49;2.20;99.90
9965;DHT22;5023;53.554;9.964;2023-12-07T22:27:53;2.10;99.90
9965;DHT22;5023;53.554;9.964;2023-12-07T22:32:55;2.00;99.90
9965;DHT22;5023;53.554;9.964;2023-12-07T22:37:57;2.10;99.90
9965;DHT22;5023;53.554;9.964;2023-12-07T22:43:01;2.20;99.90
9965;DHT22;5023;53.554;9.964;2023-12-07T22:48:03;2.20;99.90
9965;DHT22;5023;53.554;9.964;2023-12-07T22:53:06;2.10;99.90
9965;DHT22;5023;53.554;9.964;2023-12-07T22:58:09;2.20;99.90
9965;DHT22;5023;53.554;9.964;2023-12-07T23:03:11;2.40;99.90
9965;DHT22;5023;53.554;9.964;2023-12-07T23:08:13;2.20;99.90
9965;DHT22;5023;53.554;9.964;2023-12-07T23:13:17;2.20;99.90
9965;DHT22;5023;53.554;9.964;2023-12-07T23:18:19;2.30;99.90
9965;DHT22;5023;53.554;9.964;2023-12-07T23:23:21;2.10;99.90
9965;DHT22;5023;53.554;9.964;2023-12-07T23:28:26;2.10;99.90
9965;DHT22;5023;53.554;9.964;2023-12-07T23:33:28;2.10;99.90
9965;DHT22;5023;53.554;9.964;2023-12-07T23:38:30;2.10;99.90
9965;DHT22;5023;53.554;9.964;2023-12-07T23:43:33;2.10;99.90
9965;DHT22;5023;53.554;9.964;2023-12-07T23:48:35;2.10;99.90
9965;DHT22;5023;53.554;9.964;2023-12-07T23:53:37;2.10;99.90
9965;DHT22;5023;53.554;9.964;2023-12-07T23:58:40;2.10;99.90
